ITY864 LIRF-DTTA
Flight info
| Callsign | ITY864 |
|---|---|
| Flight time | N/A |
| Altitude | 37000 |
| Route | SOSAK5AXESINO8H/25 ESINO DCT ROXAN DCT QUENN DCT NOLSI UP161 TUC |
| Aircraft | A20N/M-SDE2E3FGHIJ1RWXY/LB1 |
Departure
| Time | N/A |
|---|---|
| Airport | Rome–Fiumicino Leonardo da Vinci International Airport (LIRF) |
Arrival
| Time | 2026-04-27 16:03 |
|---|---|
| Airport | Tunis Carthage International Airport (DTTA) |
| Time | Latitude | Longitude | Altitude | Speed | Heading |
|---|---|---|---|---|---|
| 2026-04-27 15:25 | 39.19212 | 10.42398 | 37105 ft | 442 kts | 188° |
| 2026-04-27 15:25 | 39.16151 | 10.42027 | 37115 ft | 442 kts | 188° |
| 2026-04-27 15:25 | 39.10018 | 10.41284 | 37104 ft | 442 kts | 188° |
| 2026-04-27 15:26 | 39.03893 | 10.40545 | 37110 ft | 441 kts | 189° |
| 2026-04-27 15:26 | 38.97777 | 10.39807 | 37110 ft | 441 kts | 189° |
| 2026-04-27 15:27 | 38.91661 | 10.39070 | 37099 ft | 441 kts | 189° |
| 2026-04-27 15:27 | 38.85554 | 10.38336 | 37108 ft | 441 kts | 189° |
| 2026-04-27 15:28 | 38.79452 | 10.37605 | 37089 ft | 440 kts | 189° |
| 2026-04-27 15:28 | 38.73399 | 10.36879 | 37108 ft | 440 kts | 189° |
| 2026-04-27 15:29 | 38.67305 | 10.36150 | 37105 ft | 440 kts | 189° |
| 2026-04-27 15:29 | 38.61210 | 10.35423 | 37098 ft | 439 kts | 189° |
| 2026-04-27 15:30 | 38.55127 | 10.34698 | 37097 ft | 439 kts | 189° |
| 2026-04-27 15:30 | 38.49050 | 10.33974 | 37096 ft | 439 kts | 189° |
| 2026-04-27 15:31 | 38.42974 | 10.33252 | 37084 ft | 439 kts | 189° |
| 2026-04-27 15:31 | 38.36909 | 10.32534 | 37094 ft | 437 kts | 189° |
| 2026-04-27 15:32 | 38.30850 | 10.31817 | 37094 ft | 437 kts | 189° |
| 2026-04-27 15:32 | 38.24793 | 10.31100 | 37091 ft | 437 kts | 189° |
| 2026-04-27 15:33 | 38.18732 | 10.30385 | 37084 ft | 437 kts | 190° |
| 2026-04-27 15:33 | 38.12723 | 10.29678 | 37091 ft | 436 kts | 190° |
| 2026-04-27 15:34 | 38.06686 | 10.28969 | 37089 ft | 436 kts | 190° |
| 2026-04-27 15:34 | 38.00628 | 10.28400 | 37089 ft | 437 kts | 187° |
| 2026-04-27 15:35 | 37.94540 | 10.28119 | 37089 ft | 438 kts | 186° |
| 2026-04-27 15:35 | 37.88445 | 10.27884 | 37086 ft | 438 kts | 186° |
| 2026-04-27 15:36 | 37.82351 | 10.27622 | 37080 ft | 438 kts | 187° |
| 2026-04-27 15:36 | 37.76264 | 10.27341 | 37080 ft | 438 kts | 187° |
| 2026-04-27 15:37 | 37.70177 | 10.27054 | 37077 ft | 437 kts | 187° |
| 2026-04-27 15:37 | 37.64099 | 10.26768 | 37075 ft | 437 kts | 187° |
| 2026-04-27 15:38 | 37.58028 | 10.26483 | 37078 ft | 437 kts | 187° |
| 2026-04-27 15:38 | 37.51953 | 10.26200 | 37072 ft | 437 kts | 187° |
| 2026-04-27 15:39 | 37.45880 | 10.25917 | 37072 ft | 437 kts | 188° |
| 2026-04-27 15:39 | 37.39799 | 10.25633 | 37072 ft | 437 kts | 188° |
| 2026-04-27 15:40 | 37.33715 | 10.25350 | 37069 ft | 437 kts | 188° |
| 2026-04-27 15:40 | 37.27631 | 10.25068 | 37069 ft | 437 kts | 188° |
| 2026-04-27 15:41 | 37.21554 | 10.24788 | 36955 ft | 435 kts | 188° |
| 2026-04-27 15:41 | 37.18546 | 10.24652 | 36647 ft | 428 kts | 188° |
| 2026-04-27 15:41 | 37.15600 | 10.24523 | 36452 ft | 419 kts | 188° |
| 2026-04-27 15:42 | 37.12715 | 10.24396 | 36266 ft | 409 kts | 188° |
| 2026-04-27 15:42 | 37.09927 | 10.24118 | 36071 ft | 393 kts | 198° |
| 2026-04-27 15:42 | 37.07387 | 10.23108 | 35745 ft | 378 kts | 210° |
| 2026-04-27 15:42 | 37.05026 | 10.21676 | 35119 ft | 378 kts | 213° |
| 2026-04-27 15:43 | 37.02678 | 10.20140 | 34399 ft | 382 kts | 213° |
| 2026-04-27 15:43 | 37.00329 | 10.18606 | 33638 ft | 381 kts | 213° |
| 2026-04-27 15:43 | 36.97987 | 10.17070 | 32841 ft | 379 kts | 213° |
| 2026-04-27 15:43 | 36.95655 | 10.15521 | 32060 ft | 378 kts | 213° |
| 2026-04-27 15:44 | 36.93345 | 10.13969 | 31302 ft | 376 kts | 213° |
| 2026-04-27 15:44 | 36.91053 | 10.12411 | 30568 ft | 375 kts | 213° |
| 2026-04-27 15:44 | 36.88775 | 10.10843 | 29791 ft | 373 kts | 213° |
| 2026-04-27 15:44 | 36.86509 | 10.09273 | 28960 ft | 371 kts | 213° |
| 2026-04-27 15:45 | 36.84256 | 10.07707 | 28154 ft | 370 kts | 213° |
| 2026-04-27 15:45 | 36.82015 | 10.06147 | 27373 ft | 368 kts | 213° |
| 2026-04-27 15:45 | 36.79784 | 10.04600 | 26606 ft | 367 kts | 213° |
| 2026-04-27 15:45 | 36.77542 | 10.03088 | 25851 ft | 365 kts | 213° |
| 2026-04-27 15:46 | 36.75307 | 10.01587 | 25124 ft | 364 kts | 213° |
| 2026-04-27 15:46 | 36.73109 | 10.00050 | 24417 ft | 360 kts | 218° |
| 2026-04-27 15:46 | 36.71266 | 9.98011 | 23724 ft | 352 kts | 231° |
| 2026-04-27 15:46 | 36.69672 | 9.95714 | 22928 ft | 349 kts | 233° |
| 2026-04-27 15:47 | 36.68141 | 9.93388 | 22137 ft | 346 kts | 237° |
| 2026-04-27 15:47 | 36.67132 | 9.90723 | 21370 ft | 339 kts | 257° |
| 2026-04-27 15:47 | 36.67010 | 9.87821 | 20604 ft | 337 kts | 278° |
| 2026-04-27 15:47 | 36.67787 | 9.85081 | 19862 ft | 339 kts | 299° |
| 2026-04-27 15:48 | 36.69357 | 9.82889 | 19154 ft | 344 kts | 320° |
| 2026-04-27 15:48 | 36.71511 | 9.81560 | 18454 ft | 351 kts | 341° |
| 2026-04-27 15:48 | 36.73923 | 9.81270 | 17694 ft | 357 kts | 359° |
| 2026-04-27 15:49 | 36.78847 | 9.81956 | 16168 ft | 354 kts | 3° |
| 2026-04-27 15:49 | 36.81282 | 9.82350 | 15417 ft | 351 kts | 3° |
| 2026-04-27 15:49 | 36.83692 | 9.82742 | 14693 ft | 348 kts | 3° |
| 2026-04-27 15:49 | 36.86084 | 9.83157 | 13990 ft | 347 kts | 8° |
| 2026-04-27 15:50 | 36.88325 | 9.84290 | 13218 ft | 352 kts | 30° |
| 2026-04-27 15:50 | 36.90097 | 9.86383 | 12457 ft | 355 kts | 52° |
| 2026-04-27 15:50 | 36.91147 | 9.89153 | 11718 ft | 354 kts | 75° |
| 2026-04-27 15:50 | 36.91316 | 9.92180 | 11041 ft | 349 kts | 98° |
| 2026-04-27 15:51 | 36.90601 | 9.95035 | 10338 ft | 343 kts | 121° |
| 2026-04-27 15:51 | 36.89116 | 9.97303 | 9594 ft | 334 kts | 143° |
| 2026-04-27 15:51 | 36.87117 | 9.98647 | 8834 ft | 323 kts | 167° |
| 2026-04-27 15:51 | 36.84928 | 9.98896 | 8080 ft | 313 kts | 190° |
| 2026-04-27 15:52 | 36.82854 | 9.98237 | 7452 ft | 303 kts | 201° |
| 2026-04-27 15:52 | 36.80917 | 9.97365 | 7132 ft | 287 kts | 202° |
| 2026-04-27 15:52 | 36.79129 | 9.96489 | 6998 ft | 267 kts | 203° |
| 2026-04-27 15:52 | 36.77450 | 9.95644 | 6786 ft | 254 kts | 203° |
| 2026-04-27 15:53 | 36.75843 | 9.94820 | 6478 ft | 246 kts | 202° |
| 2026-04-27 15:53 | 36.74274 | 9.94013 | 6108 ft | 241 kts | 203° |
| 2026-04-27 15:53 | 36.72731 | 9.93210 | 5678 ft | 239 kts | 203° |
| 2026-04-27 15:53 | 36.71186 | 9.92484 | 5282 ft | 236 kts | 190° |
| 2026-04-27 15:54 | 36.69588 | 9.92633 | 5049 ft | 232 kts | 162° |
| 2026-04-27 15:54 | 36.68103 | 9.93439 | 5039 ft | 233 kts | 154° |
| 2026-04-27 15:54 | 36.66664 | 9.94357 | 5007 ft | 229 kts | 153° |
| 2026-04-27 15:54 | 36.65311 | 9.95230 | 4993 ft | 209 kts | 153° |
| 2026-04-27 15:55 | 36.64041 | 9.96055 | 4999 ft | 204 kts | 153° |
| 2026-04-27 15:55 | 36.63215 | 9.96595 | 4965 ft | 203 kts | 153° |
| 2026-04-27 15:55 | 36.61578 | 9.97725 | 4580 ft | 197 kts | 144° |
| 2026-04-27 15:55 | 36.60785 | 9.99074 | 4226 ft | 195 kts | 112° |
| 2026-04-27 15:56 | 36.60423 | 10.00684 | 4030 ft | 192 kts | 102° |
| 2026-04-27 15:56 | 36.60381 | 10.02343 | 4009 ft | 194 kts | 86° |
| 2026-04-27 15:56 | 36.60549 | 10.04013 | 4015 ft | 195 kts | 84° |
| 2026-04-27 15:56 | 36.60752 | 10.05675 | 4015 ft | 194 kts | 83° |
| 2026-04-27 15:57 | 36.61210 | 10.07243 | 4013 ft | 196 kts | 54° |
| 2026-04-27 15:57 | 36.62127 | 10.08507 | 3844 ft | 198 kts | 45° |
| 2026-04-27 15:57 | 36.63142 | 10.09676 | 3494 ft | 198 kts | 43° |
| 2026-04-27 15:57 | 36.64170 | 10.10819 | 3168 ft | 197 kts | 43° |
| 2026-04-27 15:58 | 36.65184 | 10.11942 | 3029 ft | 195 kts | 43° |
| 2026-04-27 15:58 | 36.66196 | 10.13062 | 3014 ft | 194 kts | 43° |
| 2026-04-27 15:58 | 36.67185 | 10.14145 | 3004 ft | 186 kts | 44° |
| 2026-04-27 15:58 | 36.68157 | 10.15198 | 3018 ft | 184 kts | 42° |
| 2026-04-27 15:59 | 36.69115 | 10.16244 | 3016 ft | 184 kts | 43° |
| 2026-04-27 15:59 | 36.70059 | 10.17287 | 3018 ft | 184 kts | 43° |
| 2026-04-27 15:59 | 36.71024 | 10.18337 | 2924 ft | 186 kts | 42° |
| 2026-04-27 15:59 | 36.72110 | 10.19228 | 2529 ft | 188 kts | 26° |
| 2026-04-27 16:00 | 36.73361 | 10.19558 | 2415 ft | 183 kts | 5° |
| 2026-04-27 16:00 | 36.74179 | 10.19638 | 2412 ft | 164 kts | 10° |
| 2026-04-27 16:00 | 36.75587 | 10.20048 | 2251 ft | 154 kts | 17° |
| 2026-04-27 16:00 | 36.76615 | 10.20372 | 1883 ft | 151 kts | 18° |
| 2026-04-27 16:01 | 36.77623 | 10.20682 | 1542 ft | 147 kts | 17° |
| 2026-04-27 16:01 | 36.78624 | 10.20949 | 1125 ft | 147 kts | 16° |
| 2026-04-27 16:01 | 36.79603 | 10.21200 | 843 ft | 140 kts | 15° |
| 2026-04-27 16:01 | 36.80529 | 10.21445 | 698 ft | 134 kts | 18° |
| 2026-04-27 16:02 | 36.81507 | 10.21709 | 495 ft | 146 kts | 17° |
| 2026-04-27 16:02 | 36.82475 | 10.21975 | 319 ft | 138 kts | 15° |
| 2026-04-27 16:02 | 36.83421 | 10.22236 | 170 ft | 142 kts | 13° |
| 2026-04-27 16:02 | 36.84378 | 10.22498 | 43 ft | 136 kts | 14° |
| 2026-04-27 16:03 | 36.85194 | 10.22724 | 37 ft | 97 kts | 12° |
| 2026-04-27 16:03 | 36.85681 | 10.22856 | 31 ft | 52 kts | 12° |
| 2026-04-27 16:03 | 36.85924 | 10.22908 | 32 ft | 24 kts | 348° |
| 2026-04-27 16:03 | 36.86020 | 10.22792 | 33 ft | 5 kts | 279° |
| 2026-04-27 16:04 | 36.86020 | 10.22791 | 33 ft | 0 kts | 279° |
| 2026-04-27 16:05 | 36.86003 | 10.22692 | 33 ft | 16 kts | 223° |
| 2026-04-27 16:05 | 36.85908 | 10.22641 | 33 ft | 15 kts | 192° |
| 2026-04-27 16:06 | 36.85772 | 10.22605 | 33 ft | 24 kts | 192° |
| 2026-04-27 16:06 | 36.85609 | 10.22560 | 33 ft | 24 kts | 192° |
| 2026-04-27 16:06 | 36.85449 | 10.22517 | 32 ft | 24 kts | 192° |
| 2026-04-27 16:06 | 36.85286 | 10.22473 | 36 ft | 23 kts | 193° |
| 2026-04-27 16:07 | 36.85135 | 10.22434 | 37 ft | 22 kts | 190° |
| 2026-04-27 16:07 | 36.84977 | 10.22393 | 34 ft | 24 kts | 189° |
| 2026-04-27 16:07 | 36.84816 | 10.22343 | 33 ft | 24 kts | 192° |
| 2026-04-27 16:07 | 36.84656 | 10.22300 | 32 ft | 23 kts | 191° |
| 2026-04-27 16:08 | 36.84543 | 10.22277 | 33 ft | 12 kts | 192° |
| 2026-04-27 16:08 | 36.84492 | 10.22212 | 33 ft | 11 kts | 264° |
| 2026-04-27 16:08 | 36.84501 | 10.22140 | 33 ft | 6 kts | 279° |
| 2026-04-27 16:08 | 36.84479 | 10.22060 | 33 ft | 16 kts | 233° |
| 2026-04-27 16:09 | 36.84435 | 10.21955 | 32 ft | 10 kts | 269° |
| 2026-04-27 16:09 | 36.84459 | 10.21819 | 33 ft | 5 kts | 290° |
| 2026-04-27 16:09 | 36.84482 | 10.21791 | 33 ft | 5 kts | 346° |
| 2026-04-27 16:10 | 36.84531 | 10.21826 | 33 ft | 1 kts | 41° |
| 2026-04-27 16:10 | 36.84536 | 10.21831 | 33 ft | 0 kts | 41° |